Time;durP1;ratioP1;P1;durP2;ratioP2;P2;SDS_P1;SDS_P2;PMS_P1;PMS_P2;Temp;Humidity;BMP_temperature;BMP_pressure;BME280_temperature;BME280_humidity;BME280_pressure;Samples;Min_cycle;Max_cycle;Signal;HPM_P1;HPM_P2
2021/10/02 00:31:42;;;;;;;2.80;1.50;;;13.60;99.90;;;;;;5039892;28;20195;-50
2021/10/02 00:34:25;;;;;;;1.10;1.00;;;13.60;99.90;;;;;;5042452;28;20290;-57
2021/10/02 00:37:08;;;;;;;2.03;1.00;;;13.60;99.90;;;;;;5038875;28;20941;-56
2021/10/02 00:45:07;;;;;;;2.77;1.23;;;13.50;99.90;;;;;;5038435;28;20598;-55
2021/10/02 00:47:35;;;;;;;3.50;1.50;;;13.40;99.90;;;;;;5038923;28;20210;-56
2021/10/02 00:50:04;;;;;;;2.10;1.00;;;13.40;99.90;;;;;;5031867;28;20596;-57
2021/10/02 00:52:31;;;;;;;2.37;0.73;;;13.40;99.90;;;;;;5038912;28;20676;-53
2021/10/02 00:54:58;;;;;;;2.00;1.03;;;13.40;99.90;;;;;;5030413;28;20214;-57
2021/10/02 00:57:26;;;;;;;2.07;1.40;;;13.40;99.90;;;;;;5039967;28;20207;-49
2021/10/02 00:59:54;;;;;;;5.00;1.10;;;13.30;99.90;;;;;;5037075;28;20234;-56
2021/10/02 01:02:24;;;;;;;2.00;1.37;;;13.30;99.90;;;;;;5040989;28;20215;-54
2021/10/02 01:05:30;;;;;;;1.77;1.00;;;13.30;99.90;;;;;;5029846;28;20199;-53
2021/10/02 01:08:04;;;;;;;2.10;1.30;;;13.30;99.90;;;;;;5037931;28;20215;-57
2021/10/02 01:10:40;;;;;;;2.60;1.23;;;13.30;99.90;;;;;;5027387;28;20199;-52
2021/10/02 01:13:17;;;;;;;3.73;1.47;;;13.30;99.90;;;;;;5041004;28;20205;-57
2021/10/02 01:15:47;;;;;;;3.07;1.40;;;13.30;99.90;;;;;;5038030;28;20207;-56
2021/10/02 01:18:17;;;;;;;1.43;1.23;;;13.30;99.90;;;;;;5045189;28;20265;-55
2021/10/02 01:21:15;;;;;;;3.83;1.50;;;13.30;99.90;;;;;;5030318;28;20219;-55
2021/10/02 01:23:52;;;;;;;1.63;1.40;;;13.30;99.90;;;;;;5039476;28;20211;-54
2021/10/02 01:26:35;;;;;;;2.97;1.27;;;13.30;99.90;;;;;;5040494;28;20672;-52
2021/10/02 01:29:08;;;;;;;1.83;1.27;;;13.30;99.90;;;;;;5042098;28;20233;-55
2021/10/02 01:31:38;;;;;;;1.63;1.50;;;13.30;99.90;;;;;;5036737;28;20830;-56
2021/10/02 01:34:13;;;;;;;3.43;1.47;;;13.30;99.90;;;;;;5044882;28;20287;-53
2021/10/02 01:36:49;;;;;;;2.90;1.73;;;13.20;99.90;;;;;;5022026;28;20206;-48
2021/10/02 01:47:42;;;;;;;1.77;1.57;;;13.20;99.90;;;;;;5044235;28;20207;-54
2021/10/02 01:50:10;;;;;;;2.10;1.67;;;13.30;99.90;;;;;;5041622;28;20212;-53
2021/10/02 01:52:41;;;;;;;2.27;1.70;;;13.30;99.90;;;;;;5033993;28;20211;-52
2021/10/02 01:55:10;;;;;;;3.43;1.80;;;13.30;99.90;;;;;;5041044;28;20199;-54
2021/10/02 01:57:42;;;;;;;2.97;1.60;;;13.30;99.90;;;;;;5045573;28;20291;-52
2021/10/02 02:00:12;;;;;;;2.27;1.70;;;13.30;99.90;;;;;;5023235;28;20223;-52
2021/10/02 02:02:45;;;;;;;2.77;2.23;;;13.30;99.90;;;;;;5045528;28;20282;-51
2021/10/02 02:05:13;;;;;;;6.03;1.80;;;13.30;99.90;;;;;;5041438;28;20280;-59
2021/10/02 02:07:52;;;;;;;3.43;2.00;;;13.30;99.90;;;;;;5032784;28;20571;-57
2021/10/02 02:10:21;;;;;;;5.13;2.13;;;13.30;99.90;;;;;;5042663;28;20217;-55
2021/10/02 02:12:50;;;;;;;2.73;1.80;;;13.30;99.90;;;;;;5045334;28;20196;-51
2021/10/02 02:15:19;;;;;;;2.30;2.07;;;13.30;99.90;;;;;;5029640;28;20208;-55
2021/10/02 02:17:51;;;;;;;4.03;2.63;;;13.30;99.90;;;;;;5040021;28;20214;-53
2021/10/02 02:20:24;;;;;;;3.07;2.33;;;13.30;99.90;;;;;;5042275;28;20222;-57
2021/10/02 02:22:51;;;;;;;3.63;2.23;;;13.30;99.90;;;;;;5033025;28;20211;-52
2021/10/02 02:25:18;;;;;;;4.33;2.40;;;13.20;99.90;;;;;;5040894;28;20192;-54
2021/10/02 02:27:45;;;;;;;3.07;2.47;;;13.20;99.90;;;;;;5044766;28;20202;-55
2021/10/02 02:30:12;;;;;;;3.43;2.40;;;13.20;99.90;;;;;;5027131;28;20219;-54
2021/10/02 02:32:41;;;;;;;2.73;2.53;;;13.20;99.90;;;;;;5040177;28;20196;-56
2021/10/02 02:35:09;;;;;;;4.17;2.40;;;13.20;99.90;;;;;;5039760;28;20191;-55
2021/10/02 02:37:36;;;;;;;3.00;2.70;;;13.20;99.90;;;;;;5033226;28;20191;-56
2021/10/02 02:40:03;;;;;;;3.37;2.90;;;13.20;99.90;;;;;;5041291;28;20267;-53
2021/10/02 02:42:29;;;;;;;5.93;3.20;;;13.20;99.90;;;;;;5044163;28;20219;-48
2021/10/02 02:44:56;;;;;;;4.17;2.70;;;13.20;99.90;;;;;;5036945;28;20204;-50
2021/10/02 02:47:25;;;;;;;3.17;2.43;;;13.20;99.90;;;;;;5031964;28;20206;-49
2021/10/02 02:49:59;;;;;;;5.80;3.10;;;13.20;99.90;;;;;;5043408;28;20235;-50
2021/10/02 02:52:32;;;;;;;3.60;2.73;;;13.20;99.90;;;;;;5043211;28;20187;-52
2021/10/02 02:55:03;;;;;;;3.47;2.73;;;13.20;99.90;;;;;;5030562;28;20222;-50
2021/10/02 02:57:38;;;;;;;4.27;3.30;;;13.20;99.90;;;;;;5043556;28;20211;-55
2021/10/02 03:00:08;;;;;;;4.43;3.43;;;13.20;99.90;;;;;;5025227;28;20219;-54
2021/10/02 03:02:37;;;;;;;5.80;3.30;;;13.20;99.90;;;;;;5038863;28;20223;-55
2021/10/02 03:05:07;;;;;;;4.07;3.07;;;13.20;99.90;;;;;;5041193;28;20207;-54
2021/10/02 03:07:36;;;;;;;5.13;3.43;;;13.20;99.90;;;;;;5043861;28;20207;-48
2021/10/02 03:10:03;;;;;;;5.47;3.20;;;13.30;99.90;;;;;;5029678;28;20231;-52
2021/10/02 03:12:34;;;;;;;7.03;3.63;;;13.20;99.90;;;;;;5043585;28;20202;-52
2021/10/02 03:15:02;;;;;;;7.47;3.97;;;13.20;99.90;;;;;;5041673;28;20218;-52
2021/10/02 03:17:30;;;;;;;6.47;3.73;;;13.20;99.90;;;;;;5030596;28;20203;-51
2021/10/02 03:19:58;;;;;;;3.80;3.33;;;13.20;99.90;;;;;;5037689;28;20226;-55
2021/10/02 03:22:28;;;;;;;3.83;3.07;;;13.20;99.90;;;;;;5041971;28;20211;-51
2021/10/02 03:24:56;;;;;;;4.40;3.97;;;13.20;99.90;;;;;;5030957;28;20223;-52
2021/10/02 03:27:26;;;;;;;5.70;3.40;;;13.30;99.90;;;;;;5041253;28;20211;-51
2021/10/02 03:29:53;;;;;;;7.00;3.67;;;13.30;99.90;;;;;;5040313;28;20223;-52
2021/10/02 03:32:20;;;;;;;5.50;3.90;;;13.30;99.90;;;;;;5031331;28;20199;-51
2021/10/02 03:34:47;;;;;;;5.53;4.10;;;13.30;99.90;;;;;;5033461;28;20192;-51
2021/10/02 03:37:14;;;;;;;6.73;3.83;;;13.30;99.90;;;;;;5043424;28;20695;-50
2021/10/02 03:39:42;;;;;;;4.27;3.83;;;13.30;99.90;;;;;;5030071;28;20229;-55
2021/10/02 03:42:11;;;;;;;7.83;4.00;;;13.30;99.90;;;;;;5046746;28;20592;-54
2021/10/02 03:44:41;;;;;;;4.67;4.00;;;13.30;99.90;;;;;;5040322;28;20199;-52
2021/10/02 03:47:08;;;;;;;6.37;4.20;;;13.30;99.90;;;;;;5043274;28;20265;-54
2021/10/02 03:49:34;;;;;;;5.97;4.13;;;13.20;99.90;;;;;;5026454;28;20223;-55
2021/10/02 03:52:01;;;;;;;7.47;4.23;;;13.20;99.90;;;;;;5039434;28;20926;-49
2021/10/02 03:54:28;;;;;;;7.57;4.20;;;13.30;99.90;;;;;;5042571;28;20225;-56
2021/10/02 03:56:56;;;;;;;7.93;4.60;;;13.30;99.90;;;;;;5028321;28;20206;-48
2021/10/02 03:59:23;;;;;;;4.97;4.37;;;13.20;99.90;;;;;;5042940;28;20227;-50
2021/10/02 04:01:49;;;;;;;7.80;4.77;;;13.20;99.90;;;;;;5031702;28;20203;-51
2021/10/02 04:04:16;;;;;;;6.63;4.10;;;13.20;99.90;;;;;;5030043;28;20219;-53
2021/10/02 04:06:43;;;;;;;5.73;4.63;;;13.20;99.90;;;;;;5030871;28;21078;-53
2021/10/02 04:09:09;;;;;;;5.13;4.60;;;13.30;99.90;;;;;;5043250;28;20230;-51
2021/10/02 04:11:36;;;;;;;7.60;4.83;;;13.30;99.90;;;;;;5027801;28;20215;-56
2021/10/02 04:14:04;;;;;;;10.30;5.60;;;13.30;99.90;;;;;;5042715;28;20195;-55
2021/10/02 04:16:31;;;;;;;7.20;5.20;;;13.30;99.90;;;;;;5039011;28;20195;-50
2021/10/02 04:18:59;;;;;;;7.37;5.20;;;13.30;99.90;;;;;;5030786;28;20231;-56
2021/10/02 04:21:26;;;;;;;6.07;4.97;;;13.30;99.90;;;;;;5035391;28;20203;-51
2021/10/02 04:23:52;;;;;;;7.27;5.03;;;13.30;99.90;;;;;;5041099;28;20215;-57
2021/10/02 04:26:21;;;;;;;7.53;4.93;;;13.30;99.90;;;;;;5041620;28;20199;-53
2021/10/02 04:28:48;;;;;;;6.37;4.93;;;13.30;99.90;;;;;;5029767;28;20218;-54
2021/10/02 04:31:17;;;;;;;6.07;5.17;;;13.30;99.90;;;;;;5041708;28;20215;-51
2021/10/02 04:33:44;;;;;;;7.40;5.43;;;13.30;99.90;;;;;;5041033;28;20191;-53
2021/10/02 04:36:11;;;;;;;5.30;4.77;;;13.40;99.90;;;;;;5029656;28;20207;-52
2021/10/02 04:38:38;;;;;;;8.33;5.03;;;13.40;99.90;;;;;;5033706;28;20215;-52
2021/10/02 04:41:04;;;;;;;8.23;5.33;;;13.30;99.90;;;;;;5042756;28;20199;-50
2021/10/02 04:43:33;;;;;;;8.00;4.67;;;13.30;99.90;;;;;;5027212;28;20827;-55
2021/10/02 04:46:00;;;;;;;6.43;5.03;;;13.40;99.90;;;;;;5042680;28;20610;-52
2021/10/02 04:48:28;;;;;;;6.77;5.03;;;13.40;99.90;;;;;;5040481;28;20234;-54
2021/10/02 04:50:55;;;;;;;6.10;5.13;;;13.40;99.90;;;;;;5033968;28;20213;-50
2021/10/02 04:53:21;;;;;;;6.27;4.83;;;13.40;99.90;;;;;;5038476;28;20207;-51
2021/10/02 04:55:48;;;;;;;7.70;4.67;;;13.40;99.90;;;;;;5045402;28;20202;-53
2021/10/02 04:58:15;;;;;;;7.97;5.30;;;13.40;99.90;;;;;;5044995;28;20203;-56
2021/10/02 05:00:41;;;;;;;7.80;5.87;;;13.40;99.90;;;;;;5032256;28;20191;-53
2021/10/02 05:03:08;;;;;;;9.20;5.27;;;13.40;99.90;;;;;;5046349;28;20211;-51
2021/10/02 05:05:36;;;;;;;10.73;5.23;;;13.40;99.90;;;;;;5029500;28;21297;-54
2021/10/02 05:08:03;;;;;;;7.37;5.37;;;13.40;99.90;;;;;;5027244;28;20203;-55
2021/10/02 05:10:29;;;;;;;10.40;6.03;;;13.40;99.90;;;;;;5043240;28;20207;-52
2021/10/02 05:12:56;;;;;;;8.53;6.57;;;13.40;99.90;;;;;;5039769;28;20219;-51
2021/10/02 05:15:23;;;;;;;8.47;6.10;;;13.40;99.90;;;;;;5032544;28;20207;-53
2021/10/02 05:17:49;;;;;;;10.70;5.80;;;13.40;99.90;;;;;;5044957;28;20200;-53
2021/10/02 05:20:16;;;;;;;8.40;6.50;;;13.40;99.90;;;;;;5041165;28;20210;-53
2021/10/02 05:22:44;;;;;;;9.90;5.77;;;13.40;99.90;;;;;;5031645;28;20207;-52
2021/10/02 05:25:10;;;;;;;8.37;6.30;;;13.40;99.90;;;;;;5035521;28;20207;-52
2021/10/02 05:27:37;;;;;;;9.70;7.20;;;13.40;99.90;;;;;;5040985;28;20199;-53
2021/10/02 05:30:04;;;;;;;7.63;6.70;;;13.40;99.90;;;;;;5028807;28;20235;-50
2021/10/02 05:32:31;;;;;;;10.00;6.20;;;13.30;99.90;;;;;;5043655;28;20211;-50
2021/10/02 05:34:57;;;;;;;10.70;6.70;;;13.30;99.90;;;;;;5042822;28;20191;-55
2021/10/02 05:37:24;;;;;;;7.93;6.50;;;13.30;99.90;;;;;;5028746;28;20222;-52
2021/10/02 05:39:52;;;;;;;8.70;6.83;;;13.30;99.90;;;;;;5039369;28;20247;-53
2021/10/02 05:42:19;;;;;;;10.40;7.00;;;13.30;99.90;;;;;;5037920;28;20203;-53
2021/10/02 05:44:45;;;;;;;10.80;6.20;;;13.30;99.90;;;;;;5041014;28;20215;-52
2021/10/02 05:47:12;;;;;;;7.90;6.60;;;13.30;99.90;;;;;;5029104;28;20301;-54
2021/10/02 05:49:39;;;;;;;11.30;6.43;;;13.30;99.90;;;;;;5043840;28;20230;-53
2021/10/02 05:52:06;;;;;;;9.37;6.70;;;13.30;99.90;;;;;;5031506;28;20534;-53
2021/10/02 05:54:33;;;;;;;12.87;6.97;;;13.30;99.90;;;;;;5038837;28;20249;-54
2021/10/02 05:57:01;;;;;;;10.97;6.40;;;13.30;99.90;;;;;;5033241;28;20199;-54
2021/10/02 05:59:27;;;;;;;8.70;6.57;;;13.30;99.90;;;;;;5037391;28;20306;-51
2021/10/02 06:01:54;;;;;;;8.57;6.87;;;13.30;99.90;;;;;;5031763;28;20233;-53
2021/10/02 06:04:21;;;;;;;11.23;6.80;;;13.30;99.90;;;;;;5040614;28;20215;-54
2021/10/02 06:06:47;;;;;;;15.50;7.27;;;13.20;99.90;;;;;;5031222;28;20219;-52
2021/10/02 06:09:14;;;;;;;10.37;7.90;;;13.20;99.90;;;;;;5025861;28;20223;-54
2021/10/02 06:11:41;;;;;;;12.90;7.80;;;13.20;99.90;;;;;;5032793;28;20636;-50
2021/10/02 06:14:09;;;;;;;10.07;7.53;;;13.20;99.90;;;;;;5035174;28;20200;-49
2021/10/02 06:16:36;;;;;;;11.27;7.77;;;13.20;99.90;;;;;;5034540;28;20691;-54
2021/10/02 06:19:03;;;;;;;13.80;7.83;;;13.20;99.90;;;;;;5028462;28;20277;-53
2021/10/02 06:21:30;;;;;;;15.73;8.07;;;13.20;99.90;;;;;;5043090;28;20229;-52
2021/10/02 06:23:58;;;;;;;15.13;7.97;;;13.20;99.90;;;;;;5027393;28;22191;-53
2021/10/02 06:26:25;;;;;;;12.33;7.83;;;13.20;99.90;;;;;;5042865;28;20202;-54
2021/10/02 06:28:52;;;;;;;11.83;7.13;;;13.20;99.90;;;;;;5029286;28;20222;-53
2021/10/02 06:31:20;;;;;;;13.33;8.10;;;13.20;99.90;;;;;;5045237;28;20203;-57
2021/10/02 06:33:46;;;;;;;13.97;7.70;;;13.20;99.90;;;;;;5029419;28;20195;-52
2021/10/02 06:36:13;;;;;;;14.57;8.10;;;13.20;99.90;;;;;;5043322;28;20230;-54
2021/10/02 06:38:40;;;;;;;13.43;7.93;;;13.30;99.90;;;;;;5033720;28;20222;-55
2021/10/02 06:41:07;;;;;;;16.63;9.10;;;13.30;99.90;;;;;;5039846;28;20358;-55
2021/10/02 06:43:34;;;;;;;15.53;9.13;;;13.30;99.90;;;;;;5038053;28;20222;-50
2021/10/02 06:46:01;;;;;;;14.93;7.97;;;13.30;99.90;;;;;;5035836;28;20203;-53
2021/10/02 06:48:29;;;;;;;13.13;7.87;;;13.30;99.90;;;;;;5043685;28;20703;-49
2021/10/02 06:50:56;;;;;;;16.40;7.97;;;13.30;99.90;;;;;;5031448;28;20798;-50
2021/10/02 06:53:23;;;;;;;14.50;8.03;;;13.30;99.90;;;;;;5044432;28;20199;-51
2021/10/02 06:55:50;;;;;;;15.03;8.60;;;13.30;99.90;;;;;;5027995;28;20484;-53
2021/10/02 06:58:16;;;;;;;13.57;8.77;;;13.30;99.90;;;;;;5038627;28;20199;-54
2021/10/02 07:00:43;;;;;;;12.80;8.13;;;13.30;99.90;;;;;;5034435;28;20198;-53
2021/10/02 07:03:10;;;;;;;15.33;8.60;;;13.30;99.90;;;;;;5040143;28;20726;-55
2021/10/02 07:05:38;;;;;;;11.63;7.73;;;13.30;99.90;;;;;;5030525;28;20203;-54
2021/10/02 07:08:05;;;;;;;15.13;8.60;;;13.30;99.90;;;;;;5040716;28;20190;-51
2021/10/02 07:10:31;;;;;;;15.93;8.87;;;13.30;99.90;;;;;;5037059;28;20199;-59
2021/10/02 07:12:58;;;;;;;14.70;8.70;;;13.40;99.90;;;;;;5026956;28;20216;-47
2021/10/02 07:15:25;;;;;;;15.10;9.00;;;13.40;99.90;;;;;;5044094;28;20206;-50
2021/10/02 07:17:51;;;;;;;12.63;8.17;;;13.40;99.90;;;;;;5034342;28;20188;-51
2021/10/02 07:20:18;;;;;;;11.10;8.13;;;13.40;99.90;;;;;;5031901;28;20610;-48
2021/10/02 07:22:46;;;;;;;12.33;8.73;;;13.40;99.90;;;;;;5039245;28;20214;-56
2021/10/02 07:25:14;;;;;;;19.60;9.47;;;13.40;99.90;;;;;;5042626;28;20895;-48
2021/10/02 07:27:42;;;;;;;16.40;9.50;;;13.40;99.90;;;;;;5026823;28;20687;-47
2021/10/02 07:30:13;;;;;;;13.57;9.17;;;13.40;99.90;;;;;;5036342;28;20230;-51
2021/10/02 07:32:40;;;;;;;14.97;8.90;;;13.40;99.90;;;;;;5036360;28;20637;-49
2021/10/02 07:35:09;;;;;;;15.70;8.63;;;13.40;99.90;;;;;;5041739;28;20880;-54
2021/10/02 07:37:36;;;;;;;13.37;8.77;;;13.40;99.90;;;;;;5026837;28;20199;-50
2021/10/02 07:40:06;;;;;;;15.43;9.73;;;13.40;99.90;;;;;;5034249;28;20221;-53
2021/10/02 07:42:35;;;;;;;13.90;8.87;;;13.40;99.90;;;;;;5028776;28;20218;-50
2021/10/02 07:45:06;;;;;;;15.60;8.80;;;13.50;99.90;;;;;;5032988;28;20219;-52
2021/10/02 07:47:34;;;;;;;15.57;9.17;;;13.50;99.90;;;;;;5040790;28;20214;-52
2021/10/02 07:50:02;;;;;;;15.63;10.13;;;13.50;99.90;;;;;;5037832;28;20223;-52
2021/10/02 07:52:29;;;;;;;13.13;9.73;;;13.50;99.90;;;;;;5030915;28;20273;-54
2021/10/02 07:54:56;;;;;;;13.93;8.97;;;13.50;99.90;;;;;;5040238;28;20895;-48
2021/10/02 07:57:25;;;;;;;15.83;10.03;;;13.50;99.90;;;;;;5025473;28;20212;-52
2021/10/02 07:59:52;;;;;;;14.13;8.93;;;13.50;99.90;;;;;;5038876;28;20916;-52
2021/10/02 08:02:20;;;;;;;13.17;9.53;;;13.60;99.90;;;;;;5036664;28;20679;-49
2021/10/02 08:04:47;;;;;;;14.23;9.37;;;13.60;99.90;;;;;;5033951;28;20230;-50
2021/10/02 08:07:14;;;;;;;15.73;8.83;;;13.60;99.90;;;;;;5042705;28;20577;-52
2021/10/02 08:09:41;;;;;;;11.93;8.40;;;13.60;99.90;;;;;;5028231;28;20542;-55
2021/10/02 08:12:08;;;;;;;13.13;8.87;;;13.70;99.90;;;;;;5029461;28;20204;-48
2021/10/02 08:14:38;;;;;;;13.63;8.77;;;13.70;99.90;;;;;;5032219;28;20210;-57
2021/10/02 08:17:06;;;;;;;12.23;8.90;;;13.70;99.90;;;;;;5037334;28;20572;-49
2021/10/02 08:19:35;;;;;;;11.57;9.07;;;13.80;99.90;;;;;;5034981;28;20241;-56
2021/10/02 08:22:04;;;;;;;14.13;9.40;;;13.90;99.90;;;;;;5041895;28;20787;-50
2021/10/02 08:24:32;;;;;;;10.90;8.70;;;14.00;99.90;;;;;;5030899;28;20218;-56
2021/10/02 08:26:59;;;;;;;14.50;8.53;;;14.00;99.90;;;;;;5045043;28;20249;-46
2021/10/02 08:29:27;;;;;;;13.03;9.50;;;14.10;99.90;;;;;;5032738;28;20233;-58
2021/10/02 08:31:55;;;;;;;13.33;8.00;;;14.10;99.90;;;;;;5038495;28;20202;-51
2021/10/02 08:34:22;;;;;;;14.87;7.93;;;14.20;99.90;;;;;;5039175;28;20203;-54
2021/10/02 08:36:49;;;;;;;11.23;8.53;;;14.20;99.90;;;;;;5040937;28;20190;-48
2021/10/02 08:39:16;;;;;;;12.37;8.33;;;14.20;99.90;;;;;;5046368;28;20586;-49
2021/10/02 08:41:44;;;;;;;8.97;7.97;;;14.20;99.90;;;;;;5030884;28;20198;-49
2021/10/02 08:44:14;;;;;;;13.67;8.67;;;14.10;99.90;;;;;;5028990;28;20212;-50
2021/10/02 08:46:41;;;;;;;11.37;8.37;;;14.10;99.90;;;;;;5035087;28;20226;-48
2021/10/02 08:49:27;;;;;;;12.90;8.27;;;14.10;99.90;;;;;;5031820;28;20226;-52
2021/10/02 08:51:54;;;;;;;11.43;7.33;;;14.10;99.90;;;;;;5041529;28;20922;-49
2021/10/02 08:54:22;;;;;;;12.93;8.33;;;14.10;99.90;;;;;;5045481;28;20608;-54
2021/10/02 08:56:51;;;;;;;11.40;8.27;;;14.10;99.90;;;;;;5031502;28;20187;-50
2021/10/02 08:59:18;;;;;;;12.70;8.43;;;14.10;99.90;;;;;;5046566;28;20222;-49
2021/10/02 09:01:45;;;;;;;12.27;8.30;;;14.00;99.90;;;;;;5033887;28;20935;-48
2021/10/02 09:04:13;;;;;;;9.53;8.30;;;14.00;99.90;;;;;;5040976;28;20230;-47
2021/10/02 09:06:40;;;;;;;11.50;8.13;;;14.00;99.90;;;;;;5035877;28;20195;-48
2021/10/02 09:09:08;;;;;;;8.17;7.40;;;14.00;99.90;;;;;;5046524;28;20219;-49
2021/10/02 09:11:35;;;;;;;9.33;7.23;;;14.10;99.90;;;;;;5033189;28;20652;-58
2021/10/02 09:14:02;;;;;;;8.20;6.33;;;14.10;99.90;;;;;;5040704;28;20208;-54
2021/10/02 09:16:29;;;;;;;7.30;6.53;;;14.20;99.90;;;;;;5036476;28;20580;-51
2021/10/02 09:18:57;;;;;;;6.90;6.30;;;14.30;99.90;;;;;;5041890;28;20239;-56
2021/10/02 09:21:25;;;;;;;7.30;6.57;;;14.40;99.90;;;;;;5033721;28;20207;-48
2021/10/02 09:23:52;;;;;;;10.27;6.30;;;14.40;99.90;;;;;;5041735;28;20188;-57
2021/10/02 09:26:41;;;;;;;6.63;6.03;;;14.50;99.90;;;;;;5044053;28;20230;-51
2021/10/02 09:29:08;;;;;;;8.93;6.10;;;14.60;99.90;;;;;;5044452;28;20380;-55
2021/10/02 09:31:35;;;;;;;9.37;6.17;;;14.70;99.90;;;;;;5033295;28;20204;-55
2021/10/02 09:34:02;;;;;;;6.10;5.50;;;14.80;99.90;;;;;;5044156;28;20203;-54
2021/10/02 09:36:29;;;;;;;10.07;6.73;;;14.80;99.90;;;;;;5031488;28;20771;-48
2021/10/02 09:38:55;;;;;;;8.27;6.87;;;14.90;99.90;;;;;;5044922;28;20223;-53
2021/10/02 09:41:23;;;;;;;5.83;5.20;;;15.00;99.90;;;;;;5043266;28;20607;-51
2021/10/02 09:43:55;;;;;;;5.50;5.00;;;15.10;99.90;;;;;;5032842;28;20628;-57
2021/10/02 09:46:33;;;;;;;6.63;5.40;;;15.20;99.90;;;;;;5032854;28;20299;-54
2021/10/02 09:49:00;;;;;;;7.20;5.90;;;15.30;99.90;;;;;;5035530;28;20708;-52
2021/10/02 09:51:38;;;;;;;6.13;5.17;;;15.30;99.90;;;;;;5035171;28;20208;-51
2021/10/02 09:54:05;;;;;;;6.90;5.07;;;15.40;99.90;;;;;;5040722;28;20672;-57
2021/10/02 09:56:32;;;;;;;6.03;5.07;;;15.40;99.90;;;;;;5041507;28;20794;-56
2021/10/02 09:59:00;;;;;;;6.33;5.00;;;15.40;99.90;;;;;;5033735;28;20230;-57
2021/10/02 10:01:27;;;;;;;6.03;5.43;;;15.40;99.90;;;;;;5042242;28;20202;-51
2021/10/02 10:03:55;;;;;;;5.53;5.03;;;15.40;99.90;;;;;;5032511;28;20211;-54
2021/10/02 10:06:23;;;;;;;5.63;5.13;;;15.30;99.90;;;;;;5042872;28;20227;-50
2021/10/02 10:09:08;;;;;;;6.90;5.13;;;15.40;99.90;;;;;;5038527;28;20226;-55
2021/10/02 10:11:43;;;;;;;5.80;5.10;;;15.40;99.90;;;;;;5041503;28;20191;-56
2021/10/02 10:14:17;;;;;;;6.10;4.97;;;15.40;99.90;;;;;;5024280;28;20211;-53
2021/10/02 10:16:44;;;;;;;7.67;4.93;;;15.50;99.90;;;;;;5041126;28;20199;-50
2021/10/02 10:19:18;;;;;;;5.00;4.37;;;15.60;99.90;;;;;;5025919;28;20234;-55
2021/10/02 10:21:45;;;;;;;5.60;4.70;;;15.70;99.90;;;;;;5038834;28;20190;-50
2021/10/02 10:24:19;;;;;;;5.63;4.57;;;15.80;99.90;;;;;;5038796;28;20195;-55
2021/10/02 10:26:46;;;;;;;5.03;4.57;;;15.90;99.90;;;;;;5036852;28;20198;-51
2021/10/02 10:29:14;;;;;;;6.60;4.30;;;16.00;99.90;;;;;;5032576;28;20235;-53
2021/10/02 10:31:40;;;;;;;7.63;4.23;;;16.10;99.90;;;;;;5033932;28;20204;-53
2021/10/02 10:34:07;;;;;;;5.53;4.43;;;16.20;99.90;;;;;;5025888;28;20208;-51
2021/10/02 10:36:35;;;;;;;5.07;4.00;;;16.30;99.90;;;;;;5029724;28;20203;-53
2021/10/02 10:39:01;;;;;;;4.43;4.03;;;16.20;99.90;;;;;;5038689;28;20231;-52
2021/10/02 10:41:28;;;;;;;4.23;3.93;;;16.30;99.90;;;;;;5039276;28;20203;-54
2021/10/02 10:43:55;;;;;;;4.33;3.93;;;16.20;99.90;;;;;;5044722;28;20562;-48
2021/10/02 10:46:23;;;;;;;5.83;4.67;;;16.10;99.90;;;;;;5028298;28;20302;-53
2021/10/02 10:48:51;;;;;;;6.17;4.10;;;16.00;99.90;;;;;;5039409;28;20223;-50
2021/10/02 10:51:21;;;;;;;4.93;3.73;;;15.90;99.90;;;;;;5023646;28;20213;-58
2021/10/02 10:53:50;;;;;;;4.87;3.80;;;15.90;99.90;;;;;;5028356;28;23028;-49
2021/10/02 10:56:35;;;;;;;6.30;3.37;;;15.90;99.90;;;;;;5041572;28;20253;-57
2021/10/02 10:59:02;;;;;;;5.73;3.80;;;15.90;99.90;;;;;;5040391;28;20218;-57
2021/10/02 11:01:35;;;;;;;6.93;4.03;;;15.90;99.90;;;;;;5027822;28;20200;-49
2021/10/02 11:04:02;;;;;;;4.83;3.77;;;16.00;99.90;;;;;;5043144;28;20226;-52
2021/10/02 11:06:51;;;;;;;5.67;3.27;;;16.00;99.90;;;;;;5030276;28;20576;-50
2021/10/02 11:09:33;;;;;;;4.23;3.10;;;16.10;99.90;;;;;;5035427;28;20234;-57
2021/10/02 11:12:00;;;;;;;5.17;3.20;;;16.10;99.90;;;;;;5039180;28;20199;-52
2021/10/02 11:14:59;;;;;;;3.77;3.17;;;16.10;99.90;;;;;;5040765;28;20211;-55
2021/10/02 11:17:37;;;;;;;6.57;3.40;;;16.20;99.90;;;;;;5028655;28;20207;-55
2021/10/02 11:20:29;;;;;;;5.40;2.90;;;16.20;99.90;;;;;;5039022;28;20579;-53
2021/10/02 11:23:32;;;;;;;3.47;2.70;;;16.30;99.90;;;;;;5018914;28;20400;-52
2021/10/02 11:26:12;;;;;;;4.50;3.57;;;16.40;99.90;;;;;;5020942;28;20218;-54
2021/10/02 11:28:39;;;;;;;4.57;2.80;;;16.50;99.90;;;;;;5035307;28;20223;-50
2021/10/02 11:31:13;;;;;;;3.53;2.77;;;16.60;99.90;;;;;;5033799;28;20191;-56
2021/10/02 11:33:45;;;;;;;4.60;3.10;;;16.60;99.90;;;;;;5030838;28;20214;-48
2021/10/02 11:36:43;;;;;;;3.77;3.13;;;16.60;99.90;;;;;;5031479;28;20852;-46
2021/10/02 11:39:15;;;;;;;4.20;2.60;;;16.50;99.90;;;;;;5000976;28;20235;-51
2021/10/02 11:41:45;;;;;;;3.33;2.30;;;16.50;99.90;;;;;;5035256;28;20647;-54
2021/10/02 11:44:12;;;;;;;5.83;3.03;;;16.50;99.90;;;;;;5034079;28;20544;-55
2021/10/02 11:46:39;;;;;;;3.50;2.40;;;16.50;99.90;;;;;;5042898;28;20227;-52
2021/10/02 11:49:16;;;;;;;5.20;2.63;;;16.60;99.90;;;;;;5027400;28;20219;-48
2021/10/02 11:52:03;;;;;;;3.93;2.80;;;16.70;99.90;;;;;;5041041;28;20199;-54
2021/10/02 11:54:30;;;;;;;4.43;3.20;;;16.60;99.90;;;;;;5019340;28;20211;-48
2021/10/02 11:57:09;;;;;;;3.20;2.53;;;16.70;99.90;;;;;;5034828;28;20203;-57
2021/10/02 11:59:40;;;;;;;3.17;2.90;;;16.70;99.90;;;;;;5035220;28;20738;-49
2021/10/02 12:02:07;;;;;;;3.87;2.70;;;16.70;99.90;;;;;;5037263;28;20202;-52
2021/10/02 12:04:35;;;;;;;3.70;2.50;;;16.70;99.90;;;;;;5031034;28;20218;-52
2021/10/02 12:07:02;;;;;;;3.57;2.60;;;16.80;99.90;;;;;;5034583;28;20238;-56
2021/10/02 12:09:30;;;;;;;3.83;2.50;;;16.80;99.90;;;;;;5015363;28;20291;-51
2021/10/02 12:11:56;;;;;;;4.33;3.47;;;17.00;99.90;;;;;;5030385;28;20203;-57
2021/10/02 12:14:25;;;;;;;4.17;2.93;;;17.10;99.90;;;;;;5032228;28;20278;-49
2021/10/02 12:16:53;;;;;;;7.20;3.37;;;17.10;99.90;;;;;;5045699;28;20199;-56
2021/10/02 12:19:21;;;;;;;6.40;3.33;;;17.20;99.90;;;;;;5027918;28;20234;-50
2021/10/02 12:21:50;;;;;;;5.73;3.60;;;17.20;99.90;;;;;;5041189;28;20737;-52
2021/10/02 12:24:20;;;;;;;4.50;3.20;;;17.20;99.90;;;;;;5025907;28;20215;-51
2021/10/02 12:26:53;;;;;;;4.40;3.07;;;17.30;99.90;;;;;;5034379;28;20215;-51
2021/10/02 12:29:22;;;;;;;4.50;3.43;;;17.40;99.90;;;;;;5029145;28;20230;-52
2021/10/02 12:32:01;;;;;;;4.17;2.80;;;17.50;99.90;;;;;;5042192;28;20203;-57
2021/10/02 12:34:31;;;;;;;3.67;3.10;;;17.50;99.90;;;;;;5029800;28;20211;-50
2021/10/02 12:37:01;;;;;;;4.30;3.07;;;17.40;99.90;;;;;;5039865;28;20199;-54
2021/10/02 12:39:34;;;;;;;5.37;3.13;;;17.20;99.90;;;;;;5021322;28;20230;-52
2021/10/02 12:42:02;;;;;;;3.73;2.70;;;17.20;99.90;;;;;;5032520;28;20261;-50
2021/10/02 12:44:32;;;;;;;5.47;2.80;;;17.20;99.90;;;;;;5036268;28;20682;-52
2021/10/02 12:47:00;;;;;;;5.13;3.63;;;17.10;99.90;;;;;;5034502;28;20223;-52
2021/10/02 12:49:27;;;;;;;3.90;3.50;;;17.10;99.90;;;;;;5028079;28;20234;-53
2021/10/02 12:51:55;;;;;;;3.70;3.00;;;17.20;99.90;;;;;;5040915;28;20200;-55
2021/10/02 12:54:26;;;;;;;4.43;3.43;;;17.40;99.90;;;;;;5022278;28;20215;-47
2021/10/02 12:57:02;;;;;;;4.10;3.57;;;17.40;99.90;;;;;;5026409;28;20195;-57
2021/10/02 12:59:40;;;;;;;4.23;3.80;;;17.40;99.90;;;;;;5033803;28;20314;-48
2021/10/02 13:02:07;;;;;;;3.60;3.30;;;17.40;99.90;;;;;;5031616;28;20287;-53
2021/10/02 13:04:35;;;;;;;4.67;3.67;;;17.40;99.90;;;;;;5042819;28;20586;-51
2021/10/02 13:07:02;;;;;;;5.37;4.40;;;17.40;99.90;;;;;;5026668;28;20230;-52
2021/10/02 13:09:30;;;;;;;4.27;3.67;;;17.40;99.90;;;;;;5026210;28;20227;-52
2021/10/02 13:12:06;;;;;;;3.97;3.50;;;17.40;99.90;;;;;;5034327;28;20206;-51
2021/10/02 13:14:35;;;;;;;6.13;4.03;;;17.40;99.90;;;;;;5028227;28;20207;-49
2021/10/02 13:17:03;;;;;;;6.00;4.00;;;17.30;99.90;;;;;;5045141;28;20207;-52
2021/10/02 13:19:31;;;;;;;4.73;4.00;;;17.20;99.90;;;;;;5036256;28;20223;-58
2021/10/02 13:22:14;;;;;;;4.70;4.03;;;17.20;99.90;;;;;;5024214;28;20333;-58
2021/10/02 13:25:17;;;;;;;5.03;4.07;;;17.30;99.90;;;;;;5029393;28;20199;-59
2021/10/02 13:27:47;;;;;;;3.97;3.67;;;17.30;99.90;;;;;;5025796;28;20211;-51
2021/10/02 13:30:17;;;;;;;5.13;4.33;;;17.30;99.90;;;;;;5039140;28;20242;-51
2021/10/02 13:32:56;;;;;;;4.77;4.37;;;17.30;99.90;;;;;;5042087;28;20203;-52
2021/10/02 13:35:23;;;;;;;5.17;4.67;;;17.50;99.90;;;;;;5041989;28;20580;-51
2021/10/02 13:37:50;;;;;;;5.80;4.00;;;17.60;99.90;;;;;;5032773;28;20969;-55
2021/10/02 13:40:22;;;;;;;4.70;4.30;;;17.60;99.90;;;;;;5029531;28;20227;-49